Camanche, IA (52730)

4:09 PM CDT on September 01, 2014 (GMT -0500)
KIACLINT4 | Change Station
CLOSE
Current Station
Personal Weather Station
Location: Clinton, IA
Elevation: 592 ft
Nearby Weather Stations

Elev 592 ft 41.81 °N, 90.24 °W | Updated 2 minutes ago

Scattered Clouds
Scattered Clouds
82.1 °F
Feels Like 85 °F
N
18.0
Wind Variable Wind from WSW
Gusts 18.0 mph

Today
High -- | Low -- °F
--% Chance of Precip.
Yesterday
High -- | Low -- °F
Precip. -- in
6:26 AM 7:34 PM
Waxing Crescent, 44% visible
Pressure 29.80 in
Visibility 10.0 miles
Clouds Few 3500 ft
Scattered Clouds 4200 ft
Heat Index 85 °F
Dew Point 68 °F
Humidity 62%
Rainfall 0.09 in
Snow Depth Not available.
UV 4 out of 12
Pollen 5.60 out of 12
Air Quality Not available.
Flu Activity Not available.
METAR KCWI 012055Z AUTO 25014G19KT 10SM FEW035 SCT042 28/19 A2980 RMK AO1 52003

More Conditions Fewer Conditions

Pressure 29.80 in
Visibility 10.0 miles
Clouds Few 3500 ft
Scattered Clouds 4200 ft
Heat Index 85 °F
Dew Point 68 °F
Humidity 62%
Rainfall 0.09 in
Snow Depth Not available.
UV 4 out of 12
Pollen 5.60 out of 12
Air Quality Not available.
Flu Activity Not available.
METAR KCWI 012055Z AUTO 25014G19KT 10SM FEW035 SCT042 28/19 A2980 RMK AO1 52003

More Conditions Fewer Conditions

10-Day Weather Forecast

Almanac

Astronomy

Sep. 01, 2014 Rise Set
Actual Time 6:26 AM CDT 7:34 PM CDT
Civil Twilight 5:58 AM CDT 8:02 PM CDT
Nautical Twilight 5:24 AM CDT 8:36 PM CDT
Astronomical Twilight 4:48 AM CDT 9:12 PM CDT
Moon 1:18 PM CDT 11:29 PM CDT
Length of Visible Light 14h 04m
Length of Day
13h 07m
Tomorrow will be 2m 42s shorter.
Waxing Crescent, 44% of the Moon is Illuminated
Today
Waxing Crescent
Sep 2
First Quarter
Sep 8
Full
Sep 15
Last Quarter
Sep 24
New

Today's Extremes

State Highs State Lows

Community

WunderPhotos

Upload Photos

1,749,407 photos uploaded!

WunderBlogs® & News

Nearby

Snow Depth

Station Depth Elevation
No new snow has been reported.

Earthquake Activity

City Distance Mag. Time & Date
No recent earthquake activity has been reported nearby.
Minimum magnitude displayed is 2.5.

Coastal Water Temperatures

Place Temperature
No Stations Reporting

Nearby Weather Stations